createdAt,value
2022-08-26T00:00:42.503Z,1013.22
2022-08-26T00:01:44.794Z,1013.22
2022-08-26T00:02:42.421Z,1013.16
2022-08-26T00:03:42.477Z,1013.20
2022-08-26T00:04:42.421Z,1013.26
2022-08-26T00:05:42.421Z,1013.18
2022-08-26T00:06:46.100Z,1013.21
2022-08-26T00:07:42.360Z,1013.25
2022-08-26T00:08:42.345Z,1013.20
2022-08-26T00:09:42.348Z,1013.25
2022-08-26T00:10:43.347Z,1013.28
2022-08-26T00:11:42.311Z,1013.21
2022-08-26T00:12:42.303Z,1013.22
2022-08-26T00:13:42.286Z,1013.25
2022-08-26T00:14:43.270Z,1013.24
2022-08-26T00:15:42.261Z,1013.17
2022-08-26T00:16:48.042Z,1013.18
2022-08-26T00:17:43.223Z,1013.17
2022-08-26T00:18:42.219Z,1013.18
2022-08-26T00:19:42.224Z,1013.17
2022-08-26T00:20:42.863Z,1013.18
2022-08-26T00:21:42.199Z,1013.16
2022-08-26T00:22:42.158Z,1013.18
2022-08-26T00:23:42.150Z,1013.10
2022-08-26T00:24:47.935Z,1013.11
2022-08-26T00:25:43.123Z,1013.12
2022-08-26T00:26:42.134Z,1013.17
2022-08-26T00:27:42.102Z,1013.18
2022-08-26T00:28:42.084Z,1013.22
2022-08-26T00:29:42.114Z,1013.18
2022-08-26T00:30:42.062Z,1013.23
2022-08-26T00:31:42.161Z,1013.19
2022-08-26T00:32:42.026Z,1013.20
2022-08-26T00:33:42.050Z,1013.14
2022-08-26T00:34:42.051Z,1013.20
2022-08-26T00:35:43.838Z,1013.18
2022-08-26T00:36:41.979Z,1013.15
2022-08-26T00:37:41.966Z,1013.11
2022-08-26T00:38:42.001Z,1013.18
2022-08-26T00:39:41.956Z,1013.15
2022-08-26T00:40:41.909Z,1013.16
2022-08-26T00:41:41.913Z,1013.16
2022-08-26T00:42:46.151Z,1013.16
2022-08-26T00:43:47.371Z,1013.16
2022-08-26T00:44:42.885Z,1013.16
2022-08-26T00:45:41.930Z,1013.17
2022-08-26T00:46:44.967Z,1013.15
2022-08-26T00:47:42.872Z,1013.12
2022-08-26T00:48:41.809Z,1013.10
2022-08-26T00:49:41.845Z,1013.17
2022-08-26T00:50:41.794Z,1013.09
2022-08-26T00:51:41.777Z,1013.11
2022-08-26T00:52:41.762Z,1013.14
2022-08-26T00:53:41.768Z,1013.12
2022-08-26T00:54:42.319Z,1013.14
2022-08-26T00:55:41.791Z,1013.06
2022-08-26T00:56:41.709Z,1013.09
2022-08-26T00:57:41.722Z,1013.07
2022-08-26T00:58:41.673Z,1013.11
2022-08-26T00:59:41.666Z,1013.10
2022-08-26T01:00:41.734Z,1013.13
2022-08-26T01:01:41.644Z,1013.07
2022-08-26T01:02:46.875Z,1013.08
2022-08-26T01:03:42.649Z,1013.01
2022-08-26T01:04:41.606Z,1013.00
2022-08-26T01:05:41.607Z,1013.10
2022-08-26T01:06:41.574Z,1013.05
2022-08-26T01:07:41.580Z,1013.00
2022-08-26T01:08:41.553Z,1013.05
2022-08-26T01:09:41.557Z,1013.01
2022-08-26T01:10:41.587Z,1013.08
2022-08-26T01:11:41.515Z,1013.06
2022-08-26T01:12:41.503Z,1013.04
2022-08-26T01:13:41.529Z,1013.00
2022-08-26T01:14:41.508Z,1013.02
2022-08-26T01:15:42.489Z,1013.06
2022-08-26T01:16:42.347Z,1013.07
2022-08-26T01:17:41.439Z,1013.15
2022-08-26T01:18:41.471Z,1013.04
2022-08-26T01:19:41.420Z,1013.10
2022-08-26T01:20:41.401Z,1013.10
2022-08-26T01:21:41.393Z,1013.08
2022-08-26T01:22:41.367Z,1013.09
2022-08-26T01:23:41.362Z,1013.08
2022-08-26T01:24:41.363Z,1013.04
2022-08-26T01:25:43.052Z,1013.09
2022-08-26T01:26:41.376Z,1013.13
2022-08-26T01:27:41.347Z,1013.05
2022-08-26T01:28:41.301Z,1013.08
2022-08-26T01:29:41.291Z,1013.11
2022-08-26T01:30:41.297Z,1013.12
2022-08-26T01:31:41.321Z,1013.08
2022-08-26T01:32:41.238Z,1013.10
2022-08-26T01:33:42.456Z,1013.05
2022-08-26T01:34:41.217Z,1013.09
2022-08-26T01:35:41.262Z,1013.13
2022-08-26T01:36:41.204Z,1013.10
2022-08-26T01:37:45.035Z,1013.09
2022-08-26T01:38:41.165Z,1013.10
2022-08-26T01:39:41.274Z,1013.10
2022-08-26T01:40:41.128Z,1013.07
2022-08-26T01:41:41.138Z,1013.08
2022-08-26T01:42:41.124Z,1013.07
2022-08-26T01:43:41.132Z,1013.05
2022-08-26T01:44:41.081Z,1013.04
2022-08-26T01:45:41.170Z,1012.99
2022-08-26T01:46:41.065Z,1013.00
2022-08-26T01:47:41.516Z,1013.07
2022-08-26T01:48:41.019Z,1013.06
2022-08-26T01:49:41.088Z,1013.04
2022-08-26T01:50:41.142Z,1013.07
2022-08-26T01:51:40.989Z,1013.08
2022-08-26T01:52:40.968Z,1013.08
2022-08-26T01:53:41.768Z,1013.04
2022-08-26T01:54:41.945Z,1013.07
2022-08-26T01:55:40.968Z,1013.06
2022-08-26T01:56:40.938Z,1013.06
2022-08-26T01:57:40.921Z,1013.08
2022-08-26T01:58:40.897Z,1013.00
2022-08-26T01:59:40.885Z,1013.06
2022-08-26T02:00:40.943Z,1013.00
2022-08-26T02:01:40.881Z,1012.96
2022-08-26T02:02:40.861Z,1013.03
2022-08-26T02:03:42.361Z,1013.02
2022-08-26T02:04:40.869Z,1013.06
2022-08-26T02:05:40.815Z,1013.09
2022-08-26T02:06:40.809Z,1013.04
2022-08-26T02:07:40.825Z,1013.09
2022-08-26T02:08:40.763Z,1013.03
2022-08-26T02:09:44.768Z,1013.01
2022-08-26T02:10:40.811Z,1012.98
2022-08-26T02:11:40.757Z,1013.03
2022-08-26T02:12:40.776Z,1013.05
2022-08-26T02:13:40.732Z,1012.99
2022-08-26T02:14:43.662Z,1012.99
2022-08-26T02:15:40.693Z,1012.96
2022-08-26T02:16:42.597Z,1013.03
2022-08-26T02:17:40.646Z,1012.94
2022-08-26T02:18:40.663Z,1012.95
2022-08-26T02:19:44.580Z,1013.01
2022-08-26T02:20:40.619Z,1012.94
2022-08-26T02:21:40.627Z,1012.96
2022-08-26T02:22:40.577Z,1012.93
2022-08-26T02:23:40.632Z,1012.94
2022-08-26T02:24:51.782Z,1012.93
2022-08-26T02:25:40.588Z,1012.96
2022-08-26T02:26:40.539Z,1012.95
2022-08-26T02:27:40.539Z,1012.95
2022-08-26T02:28:40.501Z,1012.88
2022-08-26T02:29:40.536Z,1012.91
2022-08-26T02:30:40.506Z,1013.01
2022-08-26T02:31:40.528Z,1012.99
2022-08-26T02:32:41.386Z,1013.03
2022-08-26T02:33:43.185Z,1013.01
2022-08-26T02:34:40.441Z,1013.00
2022-08-26T02:35:40.423Z,1012.93
2022-08-26T02:36:40.405Z,1012.90
2022-08-26T02:37:41.892Z,1012.90
2022-08-26T02:38:40.375Z,1012.94
2022-08-26T02:39:40.371Z,1012.92
2022-08-26T02:40:40.347Z,1012.92
2022-08-26T02:41:44.875Z,1012.92
2022-08-26T02:42:40.337Z,1012.87
2022-08-26T02:43:40.315Z,1012.85
2022-08-26T02:44:40.293Z,1012.88
2022-08-26T02:45:40.316Z,1012.91
2022-08-26T02:46:40.326Z,1012.91
2022-08-26T02:47:40.278Z,1012.92
2022-08-26T02:48:40.255Z,1012.90
2022-08-26T02:49:40.239Z,1012.88
2022-08-26T02:50:40.259Z,1012.86
2022-08-26T02:51:40.222Z,1012.95
2022-08-26T02:52:40.203Z,1012.92
2022-08-26T02:53:40.200Z,1012.85
2022-08-26T02:54:40.855Z,1012.87
2022-08-26T02:55:40.165Z,1012.85
2022-08-26T02:56:40.136Z,1012.86
2022-08-26T02:57:40.243Z,1012.81
2022-08-26T02:58:40.125Z,1012.75
2022-08-26T02:59:40.103Z,1012.79
2022-08-26T03:00:52.603Z,1012.79
2022-08-26T03:01:41.215Z,1012.77
2022-08-26T03:02:40.092Z,1012.80
2022-08-26T03:03:40.063Z,1012.80
2022-08-26T03:04:40.075Z,1012.79
2022-08-26T03:05:40.030Z,1012.76
2022-08-26T03:06:41.459Z,1012.78
2022-08-26T03:07:40.017Z,1012.78
2022-08-26T03:08:40.019Z,1012.70
2022-08-26T03:09:39.984Z,1012.73
2022-08-26T03:10:39.968Z,1012.73
2022-08-26T03:11:39.968Z,1012.71
2022-08-26T03:12:39.941Z,1012.75
2022-08-26T03:13:39.944Z,1012.72
2022-08-26T03:14:39.956Z,1012.70
2022-08-26T03:15:39.894Z,1012.74
2022-08-26T03:16:39.883Z,1012.68
2022-08-26T03:17:39.888Z,1012.70
2022-08-26T03:18:39.850Z,1012.72
2022-08-26T03:19:39.861Z,1012.70
2022-08-26T03:20:39.825Z,1012.72
2022-08-26T03:21:39.832Z,1012.65
2022-08-26T03:22:39.810Z,1012.66
2022-08-26T03:23:39.791Z,1012.65
2022-08-26T03:24:39.772Z,1012.67
2022-08-26T03:25:39.800Z,1012.70
2022-08-26T03:26:39.800Z,1012.69
2022-08-26T03:27:40.741Z,1012.61
2022-08-26T03:28:39.726Z,1012.63
2022-08-26T03:29:39.712Z,1012.67
2022-08-26T03:30:39.695Z,1012.68
2022-08-26T03:31:40.943Z,1012.65
2022-08-26T03:32:39.672Z,1012.70
2022-08-26T03:33:39.655Z,1012.68
2022-08-26T03:34:39.659Z,1012.63
2022-08-26T03:35:39.643Z,1012.63
2022-08-26T03:36:39.647Z,1012.67
2022-08-26T03:37:39.629Z,1012.70
2022-08-26T03:38:39.885Z,1012.64
2022-08-26T03:39:39.640Z,1012.66
2022-08-26T03:40:39.893Z,1012.66
2022-08-26T03:41:39.556Z,1012.67
2022-08-26T03:42:39.596Z,1012.54
2022-08-26T03:43:39.633Z,1012.58
2022-08-26T03:44:42.060Z,1012.65
2022-08-26T03:45:39.499Z,1012.58
2022-08-26T03:46:39.626Z,1012.60
2022-08-26T03:47:39.539Z,1012.68
2022-08-26T03:48:39.489Z,1012.64
2022-08-26T03:49:39.477Z,1012.60
2022-08-26T03:50:39.461Z,1012.61
2022-08-26T03:51:39.421Z,1012.59
2022-08-26T03:52:43.509Z,1012.61
2022-08-26T03:53:39.397Z,1012.54
2022-08-26T03:54:39.376Z,1012.58
2022-08-26T03:55:39.372Z,1012.64
2022-08-26T03:56:40.139Z,1012.60
2022-08-26T03:57:39.357Z,1012.61
2022-08-26T03:58:39.320Z,1012.62
2022-08-26T03:59:39.318Z,1012.55
2022-08-26T04:00:39.309Z,1012.52
2022-08-26T04:01:39.345Z,1012.53
2022-08-26T04:02:39.317Z,1012.54
2022-08-26T04:03:39.260Z,1012.52
2022-08-26T04:04:39.250Z,1012.57
2022-08-26T04:05:39.243Z,1012.58
2022-08-26T04:06:39.241Z,1012.54
2022-08-26T04:07:39.203Z,1012.51
2022-08-26T04:08:39.212Z,1012.53
2022-08-26T04:09:39.174Z,1012.53
2022-08-26T04:10:39.160Z,1012.52
2022-08-26T04:11:39.317Z,1012.47
2022-08-26T04:12:39.147Z,1012.52
2022-08-26T04:13:39.122Z,1012.52
2022-08-26T04:14:39.135Z,1012.51
2022-08-26T04:15:39.119Z,1012.48
2022-08-26T04:16:39.198Z,1012.55
2022-08-26T04:17:39.074Z,1012.47
2022-08-26T04:18:42.081Z,1012.53
2022-08-26T04:19:40.042Z,1012.48
2022-08-26T04:20:39.077Z,1012.51
2022-08-26T04:21:39.029Z,1012.47
2022-08-26T04:22:39.005Z,1012.47
2022-08-26T04:23:47.709Z,1012.47
2022-08-26T04:24:40.004Z,1012.41
2022-08-26T04:25:38.991Z,1012.40
2022-08-26T04:26:39.360Z,1012.48
2022-08-26T04:27:38.955Z,1012.43
2022-08-26T04:28:38.953Z,1012.40
2022-08-26T04:29:38.918Z,1012.41
2022-08-26T04:30:38.937Z,1012.39
2022-08-26T04:31:38.937Z,1012.43
2022-08-26T04:32:38.883Z,1012.40
2022-08-26T04:33:41.880Z,1012.36
2022-08-26T04:34:38.839Z,1012.39
2022-08-26T04:35:38.829Z,1012.38
2022-08-26T04:36:38.870Z,1012.43
2022-08-26T04:37:38.828Z,1012.39
2022-08-26T04:38:38.823Z,1012.37
2022-08-26T04:39:38.777Z,1012.37
2022-08-26T04:40:38.793Z,1012.33
2022-08-26T04:41:38.770Z,1012.35
2022-08-26T04:42:38.751Z,1012.36
2022-08-26T04:43:38.733Z,1012.37
2022-08-26T04:44:38.716Z,1012.34
2022-08-26T04:45:38.716Z,1012.34
2022-08-26T04:46:39.756Z,1012.37
2022-08-26T04:47:38.679Z,1012.33
2022-08-26T04:48:38.722Z,1012.33
2022-08-26T04:49:38.675Z,1012.37
2022-08-26T04:50:38.649Z,1012.36
2022-08-26T04:51:38.637Z,1012.41
2022-08-26T04:52:38.696Z,1012.34
2022-08-26T04:53:38.594Z,1012.40
2022-08-26T04:54:38.596Z,1012.36
2022-08-26T04:55:39.780Z,1012.42
2022-08-26T04:56:38.573Z,1012.39
2022-08-26T04:57:38.541Z,1012.43
2022-08-26T04:58:38.557Z,1012.40
2022-08-26T04:59:39.425Z,1012.40
2022-08-26T05:00:38.534Z,1012.44
2022-08-26T05:01:39.671Z,1012.43
2022-08-26T05:02:38.529Z,1012.38
2022-08-26T05:03:38.527Z,1012.41
2022-08-26T05:04:38.453Z,1012.43
2022-08-26T05:05:38.452Z,1012.44
2022-08-26T05:06:38.432Z,1012.39
2022-08-26T05:07:38.409Z,1012.41
2022-08-26T05:08:38.430Z,1012.48
2022-08-26T05:09:38.418Z,1012.50
2022-08-26T05:10:38.386Z,1012.45
2022-08-26T05:11:38.379Z,1012.48
2022-08-26T05:12:38.337Z,1012.47
2022-08-26T05:13:38.361Z,1012.46
2022-08-26T05:14:39.065Z,1012.50
2022-08-26T05:15:38.339Z,1012.43
2022-08-26T05:16:40.376Z,1012.49
2022-08-26T05:17:38.280Z,1012.44
2022-08-26T05:18:38.294Z,1012.49
2022-08-26T05:19:38.633Z,1012.41
2022-08-26T05:20:38.250Z,1012.46
2022-08-26T05:21:38.224Z,1012.47
2022-08-26T05:22:42.124Z,1012.50
2022-08-26T05:23:38.231Z,1012.50
2022-08-26T05:24:38.260Z,1012.47
2022-08-26T05:25:38.213Z,1012.44
2022-08-26T05:26:38.217Z,1012.47
2022-08-26T05:27:38.159Z,1012.47
2022-08-26T05:28:38.416Z,1012.47
2022-08-26T05:29:38.114Z,1012.40
2022-08-26T05:30:38.112Z,1012.41
2022-08-26T05:31:38.148Z,1012.45
2022-08-26T05:32:38.120Z,1012.44
2022-08-26T05:33:38.143Z,1012.46
2022-08-26T05:34:38.102Z,1012.41
2022-08-26T05:35:38.041Z,1012.48
2022-08-26T05:36:38.095Z,1012.47
2022-08-26T05:37:38.070Z,1012.47
2022-08-26T05:38:41.871Z,1012.45
2022-08-26T05:39:38.018Z,1012.48
2022-08-26T05:40:38.030Z,1012.46
2022-08-26T05:41:38.542Z,1012.53
2022-08-26T05:42:37.946Z,1012.43
2022-08-26T05:43:37.941Z,1012.41
2022-08-26T05:44:53.747Z,1012.41
2022-08-26T05:45:43.535Z,1012.42
2022-08-26T05:46:39.053Z,1012.50
2022-08-26T05:47:37.942Z,1012.52
2022-08-26T05:48:37.887Z,1012.50
2022-08-26T05:49:37.882Z,1012.51
2022-08-26T05:50:38.843Z,1012.51
2022-08-26T05:51:37.873Z,1012.54
2022-08-26T05:52:37.878Z,1012.56
2022-08-26T05:53:37.793Z,1012.55
2022-08-26T05:54:37.833Z,1012.59
2022-08-26T05:55:37.771Z,1012.53
2022-08-26T05:56:37.816Z,1012.60
2022-08-26T05:57:42.227Z,1012.54
2022-08-26T05:58:38.739Z,1012.66
2022-08-26T05:59:37.720Z,1012.63
2022-08-26T06:00:37.740Z,1012.63
2022-08-26T06:01:37.775Z,1012.56
2022-08-26T06:02:37.727Z,1012.58
2022-08-26T06:03:37.703Z,1012.57
2022-08-26T06:04:37.659Z,1012.60
2022-08-26T06:05:39.113Z,1012.57
2022-08-26T06:06:37.683Z,1012.53
2022-08-26T06:07:37.614Z,1012.55
2022-08-26T06:08:37.615Z,1012.52
2022-08-26T06:09:37.578Z,1012.60
2022-08-26T06:10:37.596Z,1012.55
2022-08-26T06:11:37.575Z,1012.49
2022-08-26T06:12:37.611Z,1012.56
2022-08-26T06:13:37.524Z,1012.54
2022-08-26T06:14:37.543Z,1012.54
2022-08-26T06:15:37.547Z,1012.52
2022-08-26T06:16:37.550Z,1012.49
2022-08-26T06:17:37.504Z,1012.55
2022-08-26T06:18:37.518Z,1012.51
2022-08-26T06:19:37.450Z,1012.55
2022-08-26T06:20:37.443Z,1012.56
2022-08-26T06:21:37.446Z,1012.56
2022-08-26T06:22:37.466Z,1012.58
2022-08-26T06:23:37.395Z,1012.57
2022-08-26T06:24:37.420Z,1012.60
2022-08-26T06:25:37.416Z,1012.58
2022-08-26T06:26:37.402Z,1012.53
2022-08-26T06:27:37.386Z,1012.50
2022-08-26T06:28:37.334Z,1012.49
2022-08-26T06:29:37.566Z,1012.48
2022-08-26T06:30:37.404Z,1012.47
2022-08-26T06:31:37.324Z,1012.46
2022-08-26T06:32:37.303Z,1012.50
2022-08-26T06:33:37.284Z,1012.50
2022-08-26T06:34:37.274Z,1012.51
2022-08-26T06:35:37.247Z,1012.51
2022-08-26T06:36:37.263Z,1012.54
2022-08-26T06:37:37.246Z,1012.55
2022-08-26T06:38:37.213Z,1012.50
2022-08-26T06:39:41.045Z,1012.53
2022-08-26T06:40:37.251Z,1012.53
2022-08-26T06:41:40.174Z,1012.54
2022-08-26T06:42:38.178Z,1012.55
2022-08-26T06:43:37.142Z,1012.54
2022-08-26T06:44:37.119Z,1012.57
2022-08-26T06:45:37.150Z,1012.59
2022-08-26T06:46:37.247Z,1012.57
2022-08-26T06:47:37.137Z,1012.55
2022-08-26T06:48:37.090Z,1012.54
2022-08-26T06:49:37.120Z,1012.58
2022-08-26T06:50:37.058Z,1012.56
2022-08-26T06:51:37.064Z,1012.56
2022-08-26T06:52:37.056Z,1012.58
2022-08-26T06:53:37.019Z,1012.56
2022-08-26T06:54:37.053Z,1012.65
2022-08-26T06:55:36.986Z,1012.68
2022-08-26T06:56:36.985Z,1012.66
2022-08-26T06:57:37.740Z,1012.67
2022-08-26T06:58:36.966Z,1012.69
2022-08-26T06:59:36.934Z,1012.63
2022-08-26T07:00:36.911Z,1012.67
2022-08-26T07:01:37.033Z,1012.73
2022-08-26T07:02:36.972Z,1012.71
2022-08-26T07:03:39.613Z,1012.74
2022-08-26T07:04:36.864Z,1012.72
2022-08-26T07:05:36.853Z,1012.76
2022-08-26T07:06:36.897Z,1012.72
2022-08-26T07:07:36.837Z,1012.76
2022-08-26T07:08:36.841Z,1012.79
2022-08-26T07:09:36.886Z,1012.77
2022-08-26T07:10:36.783Z,1012.74
2022-08-26T07:11:36.792Z,1012.83
2022-08-26T07:12:36.832Z,1012.78
2022-08-26T07:13:36.756Z,1012.74
2022-08-26T07:14:37.000Z,1012.77
2022-08-26T07:15:36.738Z,1012.71
2022-08-26T07:16:36.725Z,1012.73
2022-08-26T07:17:36.705Z,1012.73
2022-08-26T07:18:40.454Z,1012.70
2022-08-26T07:19:36.703Z,1012.68
2022-08-26T07:20:36.659Z,1012.68
2022-08-26T07:21:36.673Z,1012.74
2022-08-26T07:22:37.334Z,1012.70
2022-08-26T07:23:36.621Z,1012.72
2022-08-26T07:24:36.693Z,1012.78
2022-08-26T07:25:36.584Z,1012.74
2022-08-26T07:26:36.605Z,1012.76
2022-08-26T07:27:36.594Z,1012.76
2022-08-26T07:28:36.589Z,1012.75
2022-08-26T07:29:36.539Z,1012.74
2022-08-26T07:30:36.556Z,1012.76
2022-08-26T07:31:39.389Z,1012.80
2022-08-26T07:32:37.503Z,1012.77
2022-08-26T07:33:36.523Z,1012.80
2022-08-26T07:34:36.466Z,1012.82
2022-08-26T07:35:36.458Z,1012.78
2022-08-26T07:36:36.475Z,1012.78
2022-08-26T07:37:39.253Z,1012.82
2022-08-26T07:38:36.431Z,1012.80
2022-08-26T07:39:36.423Z,1012.82
2022-08-26T07:40:36.410Z,1012.87
2022-08-26T07:41:36.421Z,1012.79
2022-08-26T07:42:36.374Z,1012.84
2022-08-26T07:43:36.367Z,1012.84
2022-08-26T07:44:36.328Z,1012.81
2022-08-26T07:45:36.336Z,1012.89
2022-08-26T07:46:36.320Z,1012.90
2022-08-26T07:47:36.317Z,1012.82
2022-08-26T07:48:36.276Z,1012.85
2022-08-26T07:49:36.356Z,1012.87
2022-08-26T07:50:49.279Z,1012.87
2022-08-26T07:51:37.239Z,1012.85
2022-08-26T07:52:36.310Z,1012.89
2022-08-26T07:53:36.270Z,1012.91
2022-08-26T07:54:36.214Z,1012.91
2022-08-26T07:55:36.301Z,1012.93
2022-08-26T07:56:36.208Z,1012.91
2022-08-26T07:57:36.159Z,1012.96
2022-08-26T07:58:36.141Z,1012.91
2022-08-26T07:59:36.144Z,1012.98
2022-08-26T08:00:36.129Z,1012.97
2022-08-26T08:01:36.192Z,1012.97
2022-08-26T08:02:36.104Z,1012.91
2022-08-26T08:03:36.126Z,1012.89
2022-08-26T08:04:36.090Z,1012.85
2022-08-26T08:05:36.141Z,1012.89
2022-08-26T08:06:36.064Z,1012.95
2022-08-26T08:07:45.005Z,1012.89
2022-08-26T08:08:37.041Z,1012.94
2022-08-26T08:09:36.001Z,1012.97
2022-08-26T08:10:35.988Z,1012.97
2022-08-26T08:11:36.071Z,1012.94
2022-08-26T08:12:35.963Z,1012.94
2022-08-26T08:13:36.041Z,1013.00
2022-08-26T08:14:35.955Z,1012.93
2022-08-26T08:15:35.953Z,1013.01
2022-08-26T08:16:39.108Z,1012.91
2022-08-26T08:17:36.903Z,1013.00
2022-08-26T08:18:36.014Z,1012.99
2022-08-26T08:19:38.953Z,1012.99
2022-08-26T08:20:36.289Z,1013.02
2022-08-26T08:21:35.881Z,1013.04
2022-08-26T08:22:35.838Z,1013.05
2022-08-26T08:23:35.914Z,1013.03
2022-08-26T08:24:35.814Z,1013.14
2022-08-26T08:25:35.831Z,1013.10
2022-08-26T08:26:38.415Z,1013.12
2022-08-26T08:27:35.790Z,1013.08
2022-08-26T08:28:35.766Z,1013.06
2022-08-26T08:29:35.741Z,1012.98
2022-08-26T08:30:35.762Z,1013.02
2022-08-26T08:32:37.021Z,1013.05
2022-08-26T08:33:35.828Z,1013.02
2022-08-26T08:34:35.725Z,1012.99
2022-08-26T08:35:35.707Z,1013.00
2022-08-26T08:36:36.173Z,1013.02
2022-08-26T08:37:35.678Z,1013.04
2022-08-26T08:38:35.663Z,1013.08
2022-08-26T08:39:35.623Z,1013.06
2022-08-26T08:40:35.679Z,1013.06
2022-08-26T08:41:35.625Z,1013.07
2022-08-26T08:42:35.605Z,1013.04
2022-08-26T08:43:37.546Z,1013.03
2022-08-26T08:44:35.595Z,1013.00
2022-08-26T08:45:39.536Z,1012.96
2022-08-26T08:46:35.565Z,1012.93
2022-08-26T08:47:35.559Z,1012.95
2022-08-26T08:48:35.502Z,1012.98
2022-08-26T08:49:35.485Z,1013.04
2022-08-26T08:50:35.474Z,1013.03
2022-08-26T08:51:35.852Z,1013.06
2022-08-26T08:52:35.486Z,1013.11
2022-08-26T08:53:35.703Z,1013.10
2022-08-26T08:54:35.465Z,1013.03
2022-08-26T08:55:35.412Z,1013.10
2022-08-26T08:56:36.078Z,1012.99
2022-08-26T08:57:35.434Z,1012.99
2022-08-26T08:58:35.698Z,1012.97
2022-08-26T08:59:35.367Z,1012.94
2022-08-26T09:00:39.132Z,1012.89
2022-08-26T09:01:35.474Z,1012.94
2022-08-26T09:02:35.403Z,1012.92
2022-08-26T09:03:35.316Z,1012.88
2022-08-26T09:04:35.289Z,1012.85
2022-08-26T09:05:35.361Z,1012.84
2022-08-26T09:06:35.273Z,1012.86
2022-08-26T09:07:36.707Z,1012.84
2022-08-26T09:08:35.477Z,1012.84
2022-08-26T09:09:35.236Z,1012.82
2022-08-26T09:10:35.215Z,1012.83
2022-08-26T09:11:35.225Z,1012.85
2022-08-26T09:12:35.201Z,1012.85
2022-08-26T09:13:35.181Z,1012.85
2022-08-26T09:14:35.166Z,1012.86
2022-08-26T09:15:35.146Z,1012.87
2022-08-26T09:16:35.185Z,1012.84
2022-08-26T09:17:35.136Z,1012.83
2022-08-26T09:18:35.104Z,1012.82
2022-08-26T09:19:35.095Z,1012.82
2022-08-26T09:20:35.069Z,1012.78
2022-08-26T09:21:35.063Z,1012.74
2022-08-26T09:22:35.056Z,1012.73
2022-08-26T09:23:35.946Z,1012.77
2022-08-26T09:24:37.338Z,1012.75
2022-08-26T09:25:36.032Z,1012.74
2022-08-26T09:26:35.424Z,1012.75
2022-08-26T09:27:35.032Z,1012.75
2022-08-26T09:28:34.977Z,1012.76
2022-08-26T09:29:34.996Z,1012.67
2022-08-26T09:30:35.013Z,1012.70
2022-08-26T09:31:35.267Z,1012.68
2022-08-26T09:32:34.951Z,1012.71
2022-08-26T09:33:34.939Z,1012.63
2022-08-26T09:34:34.931Z,1012.68
2022-08-26T09:35:34.938Z,1012.60
2022-08-26T09:36:39.139Z,1012.55
2022-08-26T09:37:35.946Z,1012.57
2022-08-26T09:38:35.687Z,1012.56
2022-08-26T09:39:34.960Z,1012.56
2022-08-26T09:40:35.335Z,1012.55
2022-08-26T09:41:34.888Z,1012.55
2022-08-26T09:42:34.869Z,1012.50
2022-08-26T09:43:34.770Z,1012.48
2022-08-26T09:44:34.785Z,1012.49
2022-08-26T09:45:34.794Z,1012.51
2022-08-26T09:46:34.859Z,1012.51
2022-08-26T09:47:34.766Z,1012.55
2022-08-26T09:48:35.545Z,1012.57
2022-08-26T09:49:36.293Z,1012.50
2022-08-26T09:50:34.678Z,1012.58
2022-08-26T09:51:34.831Z,1012.56
2022-08-26T09:52:34.953Z,1012.56
2022-08-26T09:53:34.661Z,1012.57
2022-08-26T09:54:34.630Z,1012.61
2022-08-26T09:55:34.646Z,1012.60
2022-08-26T09:56:34.606Z,1012.59
2022-08-26T09:57:34.614Z,1012.61
2022-08-26T09:58:34.658Z,1012.54
2022-08-26T09:59:34.602Z,1012.55
2022-08-26T10:00:34.803Z,1012.58
2022-08-26T10:01:34.707Z,1012.58
2022-08-26T10:02:34.628Z,1012.59
2022-08-26T10:03:34.779Z,1012.58
2022-08-26T10:04:34.548Z,1012.57
2022-08-26T10:05:34.479Z,1012.46
2022-08-26T10:06:34.471Z,1012.48
2022-08-26T10:07:34.498Z,1012.43
2022-08-26T10:08:34.761Z,1012.54
2022-08-26T10:09:34.479Z,1012.53
2022-08-26T10:10:34.418Z,1012.55
2022-08-26T10:11:34.401Z,1012.49
2022-08-26T10:12:34.419Z,1012.50
2022-08-26T10:13:34.417Z,1012.47
2022-08-26T10:14:34.427Z,1012.48
2022-08-26T10:15:34.373Z,1012.52
2022-08-26T10:16:34.427Z,1012.48
2022-08-26T10:17:34.542Z,1012.42
2022-08-26T10:18:35.252Z,1012.47
2022-08-26T10:19:41.616Z,1012.47
2022-08-26T10:20:35.355Z,1012.41
2022-08-26T10:21:34.306Z,1012.39
2022-08-26T10:22:34.261Z,1012.39
2022-08-26T10:23:34.257Z,1012.32
2022-08-26T10:24:34.232Z,1012.36
2022-08-26T10:25:34.228Z,1012.24
2022-08-26T10:26:34.198Z,1012.24
2022-08-26T10:27:34.268Z,1012.23
2022-08-26T10:28:34.176Z,1012.20
2022-08-26T10:29:34.180Z,1012.21
2022-08-26T10:30:34.158Z,1012.17
2022-08-26T10:31:38.317Z,1012.20
2022-08-26T10:32:35.448Z,1012.17
2022-08-26T10:33:35.127Z,1012.13
2022-08-26T10:34:34.098Z,1012.13
2022-08-26T10:35:34.106Z,1012.12
2022-08-26T10:36:39.357Z,1012.16
2022-08-26T10:37:35.078Z,1012.15
2022-08-26T10:38:34.052Z,1012.12
2022-08-26T10:39:34.080Z,1012.19
2022-08-26T10:40:34.100Z,1012.20
2022-08-26T10:41:34.125Z,1012.17
2022-08-26T10:42:34.037Z,1012.25
2022-08-26T10:43:33.983Z,1012.14
2022-08-26T10:44:33.969Z,1012.25
2022-08-26T10:45:34.000Z,1012.19
2022-08-26T10:46:33.943Z,1012.17
2022-08-26T10:47:34.274Z,1012.21
2022-08-26T10:48:35.794Z,1012.22
2022-08-26T10:49:33.910Z,1012.14
2022-08-26T10:50:33.885Z,1012.17
2022-08-26T10:51:33.874Z,1012.17
2022-08-26T10:52:33.892Z,1012.11
2022-08-26T10:53:33.861Z,1012.11
2022-08-26T10:54:33.884Z,1012.11
2022-08-26T10:55:34.868Z,1012.13
2022-08-26T10:56:33.841Z,1012.15
2022-08-26T10:57:33.820Z,1012.04
2022-08-26T10:58:33.781Z,1012.05
2022-08-26T10:59:33.808Z,1012.07
2022-08-26T11:00:33.756Z,1012.09
2022-08-26T11:01:33.803Z,1012.08
2022-08-26T11:02:33.789Z,1012.06
2022-08-26T11:03:33.782Z,1012.09
2022-08-26T11:04:35.151Z,1012.06
2022-08-26T11:05:33.689Z,1012.06
2022-08-26T11:06:33.972Z,1012.02
2022-08-26T11:07:33.950Z,1012.02
2022-08-26T11:08:33.690Z,1012.01
2022-08-26T11:09:33.670Z,1012.04
2022-08-26T11:10:33.624Z,1012.03
2022-08-26T11:11:33.611Z,1011.96
2022-08-26T11:12:33.626Z,1011.98
2022-08-26T11:13:33.875Z,1011.90
2022-08-26T11:14:46.021Z,1011.91
2022-08-26T11:15:34.558Z,1011.96
2022-08-26T11:16:33.547Z,1012.01
2022-08-26T11:17:33.543Z,1011.96
2022-08-26T11:18:33.525Z,1012.02
2022-08-26T11:19:56.830Z,1011.99
2022-08-26T11:20:34.496Z,1011.99
2022-08-26T11:21:33.533Z,1011.95
2022-08-26T11:22:33.598Z,1011.97
2022-08-26T11:23:33.507Z,1011.92
2022-08-26T11:24:37.325Z,1011.99
2022-08-26T11:25:33.506Z,1011.88
2022-08-26T11:26:37.763Z,1011.83
2022-08-26T11:27:34.430Z,1011.85
2022-08-26T11:28:33.384Z,1011.88
2022-08-26T11:29:33.402Z,1011.85
2022-08-26T11:30:33.414Z,1011.83
2022-08-26T11:31:33.411Z,1011.80
2022-08-26T11:32:33.383Z,1011.83
2022-08-26T11:33:33.367Z,1011.81
2022-08-26T11:34:33.322Z,1011.76
2022-08-26T11:35:33.304Z,1011.76
2022-08-26T11:36:33.286Z,1011.68
2022-08-26T11:37:35.129Z,1011.70
2022-08-26T11:38:33.276Z,1011.64
2022-08-26T11:39:33.441Z,1011.61
2022-08-26T11:40:33.284Z,1011.66
2022-08-26T11:41:33.227Z,1011.60
2022-08-26T11:42:33.260Z,1011.63
2022-08-26T11:43:33.198Z,1011.57
2022-08-26T11:44:33.213Z,1011.56
2022-08-26T11:45:33.233Z,1011.61
2022-08-26T11:46:33.167Z,1011.52
2022-08-26T11:47:33.176Z,1011.51
2022-08-26T11:48:33.139Z,1011.51
2022-08-26T11:49:33.362Z,1011.48
2022-08-26T11:50:33.155Z,1011.45
2022-08-26T11:51:35.904Z,1011.48
2022-08-26T11:52:34.151Z,1011.44
2022-08-26T11:53:33.323Z,1011.46
2022-08-26T11:54:35.811Z,1011.39
2022-08-26T11:55:33.118Z,1011.34
2022-08-26T11:56:33.042Z,1011.36
2022-08-26T11:57:33.062Z,1011.38
2022-08-26T11:58:32.989Z,1011.28
2022-08-26T12:00:33.471Z,1011.32
2022-08-26T12:01:32.964Z,1011.25
2022-08-26T12:02:32.947Z,1011.25
2022-08-26T12:03:33.058Z,1011.28
2022-08-26T12:04:32.997Z,1011.20
2022-08-26T12:05:32.899Z,1011.23
2022-08-26T12:06:32.903Z,1011.18
2022-08-26T12:07:32.882Z,1011.11